^^
Station Historical Data
Daily Summary for March 15, 2017 Units:  Both    English   Metric
« Previous Day
Next Day »
Daily Weekly Monthly Yearly Custom
  High: Low: Average:
Temperature: 84.4 °F /  29.1 °C 55.8 °F /  13.2 °C 69.2 °F /  20.7 °C
Dew Point: 57.7 °F /  14.3 °C 42.8 °F /  6 °C 52 °F /  11.1 °C
Humidity: 91% 32% 58%
Wind Speed: 10.1mph /  16.3km/h - 1.2mph /  1.9km/h
Wind Gust: 14.0mph /  22.5km/h - -
Wind- - SSW
Pressure: 29.93 in /  1013.4 hPa 29.75 in /  1007.3 hPa -
Precipitation: 0.01 in /  0.25 mm    
Historical Graphs
 
 
Tabular Data for March 15, 2017
Time Temperature Dew Point Pressure Wind Wind Speed Wind Gust Humidity Rainfall Rate (Hourly) solar Conditions
00:03 58.3 °F /  14.6 °C 54.7 °F /  12.6 °C 29.93in /  1013.4hPa Calm     88% 0.00in /  0mm 0.0 W/m2
00:09 58.3 °F /  14.6 °C 54.5 °F /  12.5 °C 29.93in /  1013.4hPa Calm     87% 0.00in /  0mm 0.0 W/m2
00:15 58.1 °F /  14.5 °C 54.5 °F /  12.5 °C 29.93in /  1013.4hPa Calm     88% 0.00in /  0mm 0.0 W/m2
00:21 57.9 °F /  14.4 °C 54.3 °F /  12.4 °C 29.93in /  1013.4hPa Calm     88% 0.00in /  0mm 0.0 W/m2
00:27 57.9 °F /  14.4 °C 54.3 °F /  12.4 °C 29.93in /  1013.4hPa Calm     88% 0.00in /  0mm 0.0 W/m2
00:33 57.7 °F /  14.3 °C 54.1 °F /  12.3 °C 29.93in /  1013.4hPa Calm   2.0mph /  3.2km/h 88% 0.00in /  0mm 0.0 W/m2
00:39 57.7 °F /  14.3 °C 54.5 °F /  12.5 °C 29.93in /  1013.4hPa Calm     89% 0.00in /  0mm 0.0 W/m2
00:45 57.7 °F /  14.3 °C 54.5 °F /  12.5 °C 29.92in /  1013.1hPa Calm     89% 0.00in /  0mm 0.0 W/m2
00:51 57.7 °F /  14.3 °C 54.5 °F /  12.5 °C 29.92in /  1013.1hPa Calm     89% 0.00in /  0mm 0.0 W/m2
00:57 57.6 °F /  14.2 °C 54.3 °F /  12.4 °C 29.92in /  1013.1hPa Calm     89% 0.00in /  0mm 0.0 W/m2
01:03 57.6 °F /  14.2 °C 54.3 °F /  12.4 °C 29.92in /  1013.1hPa Calm   1.0mph /  1.6km/h 89% 0.00in /  0mm 0.0 W/m2
01:09 57.4 °F /  14.1 °C 54.5 °F /  12.5 °C 29.92in /  1013.1hPa Calm   3.0mph /  4.8km/h 90% 0.00in /  0mm 0.0 W/m2
01:15 57.4 °F /  14.1 °C 54.1 °F /  12.3 °C 29.91in /  1012.8hPa Calm     89% 0.00in /  0mm 0.0 W/m2
01:21 57.2 °F /  14 °C 54.0 °F /  12.2 °C 29.91in /  1012.8hPa Calm   2.0mph /  3.2km/h 89% 0.00in /  0mm 0.0 W/m2
01:27 57.0 °F /  13.9 °C 53.8 °F /  12.1 °C 29.91in /  1012.8hPa Calm   1.0mph /  1.6km/h 89% 0.00in /  0mm 0.0 W/m2
01:33 57.0 °F /  13.9 °C 53.8 °F /  12.1 °C 29.91in /  1012.8hPa Calm   1.0mph /  1.6km/h 89% 0.00in /  0mm 0.0 W/m2
01:40 57.0 °F /  13.9 °C 53.8 °F /  12.1 °C 29.91in /  1012.8hPa East 0.9mph /  1.4km/h 2.0mph /  3.2km/h 89% 0.00in /  0mm 0.0 W/m2
01:46 56.8 °F /  13.8 °C 54.0 °F /  12.2 °C 29.91in /  1012.8hPa Calm   1.0mph /  1.6km/h 90% 0.00in /  0mm 0.0 W/m2
01:52 56.8 °F /  13.8 °C 53.6 °F /  12 °C 29.90in /  1012.4hPa Calm   1.0mph /  1.6km/h 89% 0.00in /  0mm 0.0 W/m2
01:58 57.0 °F /  13.9 °C 53.8 °F /  12.1 °C 29.90in /  1012.4hPa Calm   2.0mph /  3.2km/h 89% 0.00in /  0mm 0.0 W/m2
02:04 57.0 °F /  13.9 °C 53.8 °F /  12.1 °C 29.90in /  1012.4hPa Calm     89% 0.00in /  0mm 0.0 W/m2
02:10 57.2 °F /  14 °C 54.0 °F /  12.2 °C 29.90in /  1012.4hPa Calm     89% 0.00in /  0mm 0.0 W/m2
02:16 57.4 °F /  14.1 °C 54.1 °F /  12.3 °C 29.89in /  1012.1hPa Calm   1.0mph /  1.6km/h 89% 0.00in /  0mm 0.0 W/m2
02:22 57.6 °F /  14.2 °C 54.0 °F /  12.2 °C 29.89in /  1012.1hPa Calm   1.0mph /  1.6km/h 88% 0.00in /  0mm 0.0 W/m2
02:28 57.7 °F /  14.3 °C 54.1 °F /  12.3 °C 29.89in /  1012.1hPa Calm     88% 0.00in /  0mm 0.0 W/m2
02:34 57.7 °F /  14.3 °C 54.1 °F /  12.3 °C 29.88in /  1011.7hPa Calm     88% 0.00in /  0mm 0.0 W/m2
02:40 57.6 °F /  14.2 °C 54.3 °F /  12.4 °C 29.88in /  1011.7hPa Calm   1.0mph /  1.6km/h 89% 0.00in /  0mm 0.0 W/m2
02:46 57.6 °F /  14.2 °C 54.0 °F /  12.2 °C 29.88in /  1011.7hPa Calm     88% 0.00in /  0mm 0.0 W/m2
02:52 57.6 °F /  14.2 °C 54.3 °F /  12.4 °C 29.88in /  1011.7hPa Calm     89% 0.00in /  0mm 0.0 W/m2
02:58 57.4 °F /  14.1 °C 54.1 °F /  12.3 °C 29.88in /  1011.7hPa Calm     89% 0.01in /  0.25mm 0.0 W/m2
03:04 57.2 °F /  14 °C 54.0 °F /  12.2 °C 29.88in /  1011.7hPa Calm   1.0mph /  1.6km/h 89% 0.01in /  0.25mm 0.0 W/m2
03:10 57.0 °F /  13.9 °C 53.8 °F /  12.1 °C 29.88in /  1011.7hPa Calm   1.0mph /  1.6km/h 89% 0.01in /  0.25mm 0.0 W/m2
03:16 56.8 °F /  13.8 °C 53.6 °F /  12 °C 29.88in /  1011.7hPa Calm   1.0mph /  1.6km/h 89% 0.01in /  0.25mm 0.0 W/m2
03:22 56.8 °F /  13.8 °C 53.6 °F /  12 °C 29.88in /  1011.7hPa Calm   1.0mph /  1.6km/h 89% 0.01in /  0.25mm 0.0 W/m2
03:28 56.7 °F /  13.7 °C 53.8 °F /  12.1 °C 29.88in /  1011.7hPa Calm   1.0mph /  1.6km/h 90% 0.01in /  0.25mm 0.0 W/m2
03:34 56.7 °F /  13.7 °C 53.8 °F /  12.1 °C 29.88in /  1011.7hPa Calm   1.0mph /  1.6km/h 90% 0.01in /  0.25mm 0.0 W/m2
03:40 56.7 °F /  13.7 °C 53.8 °F /  12.1 °C 29.88in /  1011.7hPa Calm   1.0mph /  1.6km/h 90% 0.01in /  0.25mm 0.0 W/m2
03:46 56.5 °F /  13.6 °C 53.6 °F /  12 °C 29.88in /  1011.7hPa Calm   2.0mph /  3.2km/h 90% 0.01in /  0.25mm 0.0 W/m2
03:52 56.7 °F /  13.7 °C 53.8 °F /  12.1 °C 29.88in /  1011.7hPa Calm     90% 0.01in /  0.25mm 0.0 W/m2
03:58 56.7 °F /  13.7 °C 53.8 °F /  12.1 °C 29.88in /  1011.7hPa Calm     90% 0.00in /  0mm 0.0 W/m2
04:04 56.7 °F /  13.7 °C 53.8 °F /  12.1 °C 29.88in /  1011.7hPa Calm   2.0mph /  3.2km/h 90% 0.00in /  0mm 0.0 W/m2
04:10 56.7 °F /  13.7 °C 53.8 °F /  12.1 °C 29.88in /  1011.7hPa Calm     90% 0.00in /  0mm 0.0 W/m2
04:16 56.7 °F /  13.7 °C 53.8 °F /  12.1 °C 29.88in /  1011.7hPa Calm     90% 0.00in /  0mm 0.0 W/m2
04:22 56.5 °F /  13.6 °C 53.6 °F /  12 °C 29.87in /  1011.4hPa Calm     90% 0.00in /  0mm 0.0 W/m2
04:28 56.5 °F /  13.6 °C 53.6 °F /  12 °C 29.87in /  1011.4hPa Calm     90% 0.00in /  0mm 0.0 W/m2
04:34 56.5 °F /  13.6 °C 54.0 °F /  12.2 °C 29.87in /  1011.4hPa Calm   1.0mph /  1.6km/h 91% 0.00in /  0mm 0.0 W/m2
04:40 56.3 °F /  13.5 °C 53.8 °F /  12.1 °C 29.86in /  1011.1hPa Calm     91% 0.00in /  0mm 0.0 W/m2
04:46 56.1 °F /  13.4 °C 53.2 °F /  11.8 °C 29.86in /  1011.1hPa Calm   1.0mph /  1.6km/h 90% 0.00in /  0mm 0.0 W/m2
04:52 56.1 °F /  13.4 °C 53.6 °F /  12 °C 29.86in /  1011.1hPa Calm   1.0mph /  1.6km/h 91% 0.00in /  0mm 0.0 W/m2
04:58 56.1 °F /  13.4 °C 53.6 °F /  12 °C 29.86in /  1011.1hPa Calm   1.0mph /  1.6km/h 91% 0.00in /  0mm 0.0 W/m2
05:04 55.9 °F /  13.3 °C 53.4 °F /  11.9 °C 29.86in /  1011.1hPa Calm   1.0mph /  1.6km/h 91% 0.00in /  0mm 0.0 W/m2
05:12 55.9 °F /  13.3 °C 53.4 °F /  11.9 °C 29.85in /  1010.7hPa Calm     91% 0.00in /  0mm 0.0 W/m2
05:18 55.9 °F /  13.3 °C 53.4 °F /  11.9 °C 29.85in /  1010.7hPa Calm   2.0mph /  3.2km/h 91% 0.00in /  0mm 0.0 W/m2
05:24 55.9 °F /  13.3 °C 53.4 °F /  11.9 °C 29.85in /  1010.7hPa Calm   2.0mph /  3.2km/h 91% 0.00in /  0mm 0.0 W/m2
05:30 55.9 °F /  13.3 °C 53.4 °F /  11.9 °C 29.85in /  1010.7hPa Calm   1.0mph /  1.6km/h 91% 0.00in /  0mm 0.0 W/m2
05:36 55.8 °F /  13.2 °C 53.2 °F /  11.8 °C 29.85in /  1010.7hPa ENE 4.0mph /  6.4km/h 4.0mph /  6.4km/h 91% 0.00in /  0mm 0.0 W/m2
05:42 55.8 °F /  13.2 °C 53.2 °F /  11.8 °C 29.86in /  1011.1hPa Calm   1.0mph /  1.6km/h 91% 0.00in /  0mm 0.0 W/m2
05:48 55.8 °F /  13.2 °C 53.2 °F /  11.8 °C 29.86in /  1011.1hPa Calm     91% 0.00in /  0mm 0.0 W/m2
05:54 55.9 °F /  13.3 °C 53.4 °F /  11.9 °C 29.86in /  1011.1hPa Calm     91% 0.00in /  0mm 0.0 W/m2
06:00 55.8 °F /  13.2 °C 53.2 °F /  11.8 °C 29.86in /  1011.1hPa Calm     91% 0.00in /  0mm 0.0 W/m2
06:06 55.9 °F /  13.3 °C 53.4 °F /  11.9 °C 29.86in /  1011.1hPa Calm     91% 0.00in /  0mm 0.0 W/m2
06:12 55.9 °F /  13.3 °C 53.1 °F /  11.7 °C 29.87in /  1011.4hPa Calm     90% 0.00in /  0mm 0.0 W/m2
06:18 56.1 °F /  13.4 °C 53.2 °F /  11.8 °C 29.87in /  1011.4hPa Calm   1.0mph /  1.6km/h 90% 0.00in /  0mm 0.0 W/m2
06:24 56.5 °F /  13.6 °C 53.2 °F /  11.8 °C 29.87in /  1011.4hPa Calm     89% 0.00in /  0mm 0.0 W/m2
06:30 56.7 °F /  13.7 °C 52.9 °F /  11.6 °C 29.87in /  1011.4hPa Calm   5.0mph /  8km/h 87% 0.00in /  0mm 0.0 W/m2
06:36 57.0 °F /  13.9 °C 52.9 °F /  11.6 °C 29.88in /  1011.7hPa Calm     86% 0.00in /  0mm 0.0 W/m2
06:42 57.2 °F /  14 °C 53.1 °F /  11.7 °C 29.88in /  1011.7hPa Calm     86% 0.00in /  0mm 0.0 W/m2
06:48 57.2 °F /  14 °C 52.3 °F /  11.3 °C 29.88in /  1011.7hPa Calm   2.0mph /  3.2km/h 84% 0.00in /  0mm 0.0 W/m2
06:56 57.2 °F /  14 °C 51.4 °F /  10.8 °C 29.88in /  1011.7hPa Calm     81% 0.00in /  0mm 0.0 W/m2
07:02 57.2 °F /  14 °C 51.1 °F /  10.6 °C 29.89in /  1012.1hPa Calm     80% 0.00in /  0mm 5.0 W/m2
07:08 57.2 °F /  14 °C 51.1 °F /  10.6 °C 29.88in /  1011.7hPa Calm   1.0mph /  1.6km/h 80% 0.00in /  0mm 9.0 W/m2
07:14 57.2 °F /  14 °C 50.4 °F /  10.2 °C 29.89in /  1012.1hPa Calm     78% 0.00in /  0mm 11.0 W/m2
07:20 57.2 °F /  14 °C 49.6 °F /  9.8 °C 29.89in /  1012.1hPa Calm   1.0mph /  1.6km/h 76% 0.00in /  0mm 12.0 W/m2
07:26 57.4 °F /  14.1 °C 49.5 °F /  9.7 °C 29.89in /  1012.1hPa Calm     75% 0.00in /  0mm 14.0 W/m2
07:32 57.4 °F /  14.1 °C 47.7 °F /  8.7 °C 29.89in /  1012.1hPa Calm   3.0mph /  4.8km/h 70% 0.00in /  0mm 18.0 W/m2
07:38 57.6 °F /  14.2 °C 46.8 °F /  8.2 °C 29.90in /  1012.4hPa South 0.9mph /  1.4km/h 2.0mph /  3.2km/h 67% 0.00in /  0mm 25.0 W/m2
07:44 58.3 °F /  14.6 °C 45.3 °F /  7.4 °C 29.90in /  1012.4hPa SSW 4.0mph /  6.4km/h 7.0mph /  11.3km/h 62% 0.00in /  0mm 25.0 W/m2
07:50 59.4 °F /  15.2 °C 44.6 °F /  7 °C 29.90in /  1012.4hPa SW 6.0mph /  9.7km/h 6.0mph /  9.7km/h 58% 0.00in /  0mm 33.0 W/m2
07:56 60.3 °F /  15.7 °C 44.1 °F /  6.7 °C 29.90in /  1012.4hPa SSE 2.9mph /  4.7km/h 7.0mph /  11.3km/h 55% 0.00in /  0mm 39.0 W/m2
08:02 61.2 °F /  16.2 °C 44.8 °F /  7.1 °C 29.90in /  1012.4hPa South 4.0mph /  6.4km/h 6.0mph /  9.7km/h 55% 0.00in /  0mm 35.0 W/m2
08:09 62.1 °F /  16.7 °C 44.2 °F /  6.8 °C 29.90in /  1012.4hPa SE 2.9mph /  4.7km/h 6.0mph /  9.7km/h 52% 0.00in /  0mm 44.0 W/m2
08:15 62.8 °F /  17.1 °C 42.8 °F /  6 °C 29.90in /  1012.4hPa SE 6.9mph /  11.1km/h 11.0mph /  17.7km/h 48% 0.00in /  0mm 54.0 W/m2
08:21 63.3 °F /  17.4 °C 43.9 °F /  6.6 °C 29.91in /  1012.8hPa SSE 6.0mph /  9.7km/h 7.0mph /  11.3km/h 49% 0.00in /  0mm 77.0 W/m2
08:27 63.9 °F /  17.7 °C 43.2 °F /  6.2 °C 29.91in /  1012.8hPa SSE 4.0mph /  6.4km/h 11.0mph /  17.7km/h 47% 0.00in /  0mm 77.0 W/m2
08:35 64.4 °F /  18 °C 43.7 °F /  6.5 °C 29.91in /  1012.8hPa SSE 4.9mph /  7.9km/h 9.0mph /  14.5km/h 47% 0.00in /  0mm 69.0 W/m2
08:41 64.6 °F /  18.1 °C 43.3 °F /  6.3 °C 29.91in /  1012.8hPa SSW 2.9mph /  4.7km/h 6.0mph /  9.7km/h 46% 0.00in /  0mm 72.0 W/m2
08:47 64.9 °F /  18.3 °C 43.7 °F /  6.5 °C 29.91in /  1012.8hPa SSE 2.0mph /  3.2km/h 7.0mph /  11.3km/h 46% 0.00in /  0mm 58.0 W/m2
08:53 65.1 °F /  18.4 °C 43.9 °F /  6.6 °C 29.92in /  1013.1hPa SSE 0.9mph /  1.4km/h 7.0mph /  11.3km/h 46% 0.00in /  0mm 56.0 W/m2
08:59 65.7 °F /  18.7 °C 43.7 °F /  6.5 °C 29.91in /  1012.8hPa SSE 4.0mph /  6.4km/h 7.0mph /  11.3km/h 45% 0.00in /  0mm 47.0 W/m2
09:05 66.0 °F /  18.9 °C 44.1 °F /  6.7 °C 29.92in /  1013.1hPa South 10.1mph /  16.3km/h 11.0mph /  17.7km/h 45% 0.00in /  0mm 67.0 W/m2
09:11 66.6 °F /  19.2 °C 44.6 °F /  7 °C 29.92in /  1013.1hPa SE 0.9mph /  1.4km/h 7.0mph /  11.3km/h 45% 0.00in /  0mm 104.0 W/m2
09:17 67.3 °F /  19.6 °C 45.9 °F /  7.7 °C 29.92in /  1013.1hPa South 8.9mph /  14.3km/h 9.0mph /  14.5km/h 46% 0.00in /  0mm 144.0 W/m2
09:23 68.2 °F /  20.1 °C 46.0 °F /  7.8 °C 29.92in /  1013.1hPa SSW 4.0mph /  6.4km/h 7.0mph /  11.3km/h 45% 0.00in /  0mm 207.0 W/m2
09:30 68.4 °F /  20.2 °C 45.0 °F /  7.2 °C 29.92in /  1013.1hPa East 2.9mph /  4.7km/h 13.0mph /  20.9km/h 43% 0.00in /  0mm 241.0 W/m2
09:36 68.5 °F /  20.3 °C 45.1 °F /  7.3 °C 29.92in /  1013.1hPa SSE 4.0mph /  6.4km/h 12.0mph /  19.3km/h 43% 0.00in /  0mm 262.0 W/m2
09:42 68.5 °F /  20.3 °C 45.7 °F /  7.6 °C 29.92in /  1013.1hPa SE 6.0mph /  9.7km/h 14.0mph /  22.5km/h 44% 0.00in /  0mm 281.0 W/m2
09:48 68.9 °F /  20.5 °C 46.0 °F /  7.8 °C 29.92in /  1013.1hPa SSE 2.0mph /  3.2km/h 11.0mph /  17.7km/h 44% 0.00in /  0mm 274.0 W/m2
09:54 69.1 °F /  20.6 °C 46.2 °F /  7.9 °C 29.92in /  1013.1hPa SSE 6.0mph /  9.7km/h 7.0mph /  11.3km/h 44% 0.00in /  0mm 294.0 W/m2
10:01 69.1 °F /  20.6 °C 46.2 °F /  7.9 °C 29.92in /  1013.1hPa SW 0.9mph /  1.4km/h 8.0mph /  12.9km/h 44% 0.00in /  0mm 339.0 W/m2
10:06 69.6 °F /  20.9 °C 46.2 °F /  7.9 °C 29.92in /  1013.1hPa South 4.0mph /  6.4km/h 8.0mph /  12.9km/h 43% 0.00in /  0mm 782.0 W/m2
10:13 70.3 °F /  21.3 °C 48.0 °F /  8.9 °C 29.91in /  1012.8hPa SSE 8.1mph /  13km/h 9.0mph /  14.5km/h 45% 0.00in /  0mm 779.0 W/m2
10:19 71.1 °F /  21.7 °C 46.8 °F /  8.2 °C 29.92in /  1013.1hPa SSW 0.9mph /  1.4km/h 10.0mph /  16.1km/h 42% 0.00in /  0mm 786.0 W/m2
10:25 71.8 °F /  22.1 °C 47.5 °F /  8.6 °C 29.92in /  1013.1hPa Calm   8.0mph /  12.9km/h 42% 0.00in /  0mm 823.0 W/m2
10:33 72.7 °F /  22.6 °C 46.9 °F /  8.3 °C 29.92in /  1013.1hPa SSE 2.9mph /  4.7km/h 8.0mph /  12.9km/h 40% 0.00in /  0mm 888.0 W/m2
10:39 73.0 °F /  22.8 °C 48.0 °F /  8.9 °C 29.92in /  1013.1hPa Calm   9.0mph /  14.5km/h 41% 0.00in /  0mm 1014.0 W/m2
10:45 73.4 °F /  23 °C 48.2 °F /  9 °C 29.91in /  1012.8hPa South 4.9mph /  7.9km/h 9.0mph /  14.5km/h 41% 0.00in /  0mm 554.0 W/m2
10:51 73.4 °F /  23 °C 48.9 °F /  9.4 °C 29.91in /  1012.8hPa SW 2.0mph /  3.2km/h 8.0mph /  12.9km/h 42% 0.00in /  0mm 445.0 W/m2
10:58 73.6 °F /  23.1 °C 49.6 °F /  9.8 °C 29.91in /  1012.8hPa SSW 2.0mph /  3.2km/h 8.0mph /  12.9km/h 43% 0.00in /  0mm 867.0 W/m2
11:04 73.9 °F /  23.3 °C 49.5 °F /  9.7 °C 29.91in /  1012.8hPa SW 2.0mph /  3.2km/h 5.0mph /  8km/h 42% 0.00in /  0mm 875.0 W/m2
11:10 74.1 °F /  23.4 °C 50.2 °F /  10.1 °C 29.91in /  1012.8hPa SSW 2.0mph /  3.2km/h 6.0mph /  9.7km/h 43% 0.00in /  0mm 874.0 W/m2
11:16 74.7 °F /  23.7 °C 50.0 °F /  10 °C 29.91in /  1012.8hPa South 0.9mph /  1.4km/h 6.0mph /  9.7km/h 42% 0.00in /  0mm 884.0 W/m2
11:22 75.2 °F /  24 °C 50.5 °F /  10.3 °C 29.91in /  1012.8hPa WSW 2.9mph /  4.7km/h 5.0mph /  8km/h 42% 0.00in /  0mm 896.0 W/m2
11:28 75.7 °F /  24.3 °C 51.1 °F /  10.6 °C 29.91in /  1012.8hPa SSW 6.0mph /  9.7km/h 7.0mph /  11.3km/h 42% 0.00in /  0mm 937.0 W/m2
11:34 76.1 °F /  24.5 °C 50.7 °F /  10.4 °C 29.90in /  1012.4hPa ESE 0.9mph /  1.4km/h 12.0mph /  19.3km/h 41% 0.00in /  0mm 919.0 W/m2
11:40 75.9 °F /  24.4 °C 49.8 °F /  9.9 °C 29.90in /  1012.4hPa South 2.9mph /  4.7km/h 8.0mph /  12.9km/h 40% 0.00in /  0mm 925.0 W/m2
11:46 76.1 °F /  24.5 °C 51.3 °F /  10.7 °C 29.90in /  1012.4hPa SSW 4.0mph /  6.4km/h 8.0mph /  12.9km/h 42% 0.00in /  0mm 930.0 W/m2
11:52 76.3 °F /  24.6 °C 50.9 °F /  10.5 °C 29.90in /  1012.4hPa SW 4.0mph /  6.4km/h 7.0mph /  11.3km/h 41% 0.00in /  0mm 946.0 W/m2
11:59 76.5 °F /  24.7 °C 51.1 °F /  10.6 °C 29.89in /  1012.1hPa SW 4.9mph /  7.9km/h 7.0mph /  11.3km/h 41% 0.00in /  0mm 969.0 W/m2
12:05 76.6 °F /  24.8 °C 51.3 °F /  10.7 °C 29.89in /  1012.1hPa SSE 0.9mph /  1.4km/h 7.0mph /  11.3km/h 41% 0.00in /  0mm 1007.0 W/m2
12:11 76.8 °F /  24.9 °C 52.0 °F /  11.1 °C 29.88in /  1011.7hPa Calm   2.0mph /  3.2km/h 42% 0.00in /  0mm 963.0 W/m2
12:17 77.2 °F /  25.1 °C 51.1 °F /  10.6 °C 29.88in /  1011.7hPa WSW 2.0mph /  3.2km/h 5.0mph /  8km/h 40% 0.00in /  0mm 967.0 W/m2
12:23 77.2 °F /  25.1 °C 52.3 °F /  11.3 °C 29.88in /  1011.7hPa ESE 0.9mph /  1.4km/h 5.0mph /  8km/h 42% 0.00in /  0mm 967.0 W/m2
12:29 77.7 °F /  25.4 °C 51.4 °F /  10.8 °C 29.87in /  1011.4hPa WSW 2.0mph /  3.2km/h 7.0mph /  11.3km/h 40% 0.00in /  0mm 974.0 W/m2
12:35 77.7 °F /  25.4 °C 52.2 °F /  11.2 °C 29.87in /  1011.4hPa South 2.9mph /  4.7km/h 6.0mph /  9.7km/h 41% 0.00in /  0mm 963.0 W/m2
12:41 77.5 °F /  25.3 °C 51.3 °F /  10.7 °C 29.87in /  1011.4hPa WSW 4.0mph /  6.4km/h 6.0mph /  9.7km/h 40% 0.00in /  0mm 970.0 W/m2
12:47 77.9 °F /  25.5 °C 51.6 °F /  10.9 °C 29.86in /  1011.1hPa WNW 2.0mph /  3.2km/h 5.0mph /  8km/h 40% 0.00in /  0mm 970.0 W/m2
12:53 78.4 °F /  25.8 °C 52.2 °F /  11.2 °C 29.86in /  1011.1hPa WSW 2.9mph /  4.7km/h 3.0mph /  4.8km/h 40% 0.00in /  0mm 965.0 W/m2
12:59 78.6 °F /  25.9 °C 52.3 °F /  11.3 °C 29.86in /  1011.1hPa WNW 0.9mph /  1.4km/h 4.0mph /  6.4km/h 40% 0.00in /  0mm 974.0 W/m2
13:06 79.2 °F /  26.2 °C 52.7 °F /  11.5 °C 29.86in /  1011.1hPa WSW 4.0mph /  6.4km/h 5.0mph /  8km/h 40% 0.00in /  0mm 981.0 W/m2
13:12 79.7 °F /  26.5 °C 51.1 °F /  10.6 °C 29.85in /  1010.7hPa WSW 2.0mph /  3.2km/h 9.0mph /  14.5km/h 37% 0.00in /  0mm 979.0 W/m2
13:18 79.7 °F /  26.5 °C 51.8 °F /  11 °C 29.85in /  1010.7hPa SW 6.0mph /  9.7km/h 8.0mph /  12.9km/h 38% 0.00in /  0mm 977.0 W/m2
13:24 79.3 °F /  26.3 °C 51.4 °F /  10.8 °C 29.85in /  1010.7hPa Calm   5.0mph /  8km/h 38% 0.00in /  0mm 974.0 W/m2
13:30 79.5 °F /  26.4 °C 52.3 °F /  11.3 °C 29.85in /  1010.7hPa Calm   3.0mph /  4.8km/h 39% 0.00in /  0mm 976.0 W/m2
13:36 80.2 °F /  26.8 °C 52.3 °F /  11.3 °C 29.85in /  1010.7hPa West 0.9mph /  1.4km/h 6.0mph /  9.7km/h 38% 0.00in /  0mm 965.0 W/m2
13:42 80.8 °F /  27.1 °C 52.2 °F /  11.2 °C 29.84in /  1010.4hPa SSW 2.0mph /  3.2km/h 5.0mph /  8km/h 37% 0.00in /  0mm 963.0 W/m2
13:48 80.8 °F /  27.1 °C 52.9 °F /  11.6 °C 29.84in /  1010.4hPa West 6.0mph /  9.7km/h 7.0mph /  11.3km/h 38% 0.00in /  0mm 960.0 W/m2
13:54 80.8 °F /  27.1 °C 52.2 °F /  11.2 °C 29.84in /  1010.4hPa WNW 4.9mph /  7.9km/h 6.0mph /  9.7km/h 37% 0.00in /  0mm 954.0 W/m2
14:01 80.8 °F /  27.1 °C 52.2 °F /  11.2 °C 29.84in /  1010.4hPa West 2.9mph /  4.7km/h 8.0mph /  12.9km/h 37% 0.00in /  0mm 965.0 W/m2
14:07 80.8 °F /  27.1 °C 52.2 °F /  11.2 °C 29.83in /  1010hPa SSW 0.9mph /  1.4km/h 3.0mph /  4.8km/h 37% 0.00in /  0mm 192.0 W/m2
14:13 80.8 °F /  27.1 °C 51.3 °F /  10.7 °C 29.83in /  1010hPa WSW 4.9mph /  7.9km/h 7.0mph /  11.3km/h 36% 0.00in /  0mm 1004.0 W/m2
14:19 80.4 °F /  26.9 °C 51.8 °F /  11 °C 29.83in /  1010hPa SE 2.9mph /  4.7km/h 6.0mph /  9.7km/h 37% 0.00in /  0mm 993.0 W/m2
14:25 80.8 °F /  27.1 °C 52.2 °F /  11.2 °C 29.83in /  1010hPa SSE 0.9mph /  1.4km/h 4.0mph /  6.4km/h 37% 0.00in /  0mm 972.0 W/m2
14:31 81.7 °F /  27.6 °C 51.4 °F /  10.8 °C 29.82in /  1009.7hPa SE 0.9mph /  1.4km/h 4.0mph /  6.4km/h 35% 0.00in /  0mm 954.0 W/m2
14:37 82.0 °F /  27.8 °C 51.6 °F /  10.9 °C 29.82in /  1009.7hPa SW 0.9mph /  1.4km/h 3.0mph /  4.8km/h 35% 0.00in /  0mm 942.0 W/m2
14:43 82.6 °F /  28.1 °C 52.2 °F /  11.2 °C 29.82in /  1009.7hPa West 0.9mph /  1.4km/h 3.0mph /  4.8km/h 35% 0.00in /  0mm 930.0 W/m2
14:49 82.8 °F /  28.2 °C 50.7 °F /  10.4 °C 29.82in /  1009.7hPa West 0.9mph /  1.4km/h 8.0mph /  12.9km/h 33% 0.00in /  0mm 962.0 W/m2
14:55 82.6 °F /  28.1 °C 52.2 °F /  11.2 °C 29.81in /  1009.4hPa West 2.0mph /  3.2km/h 2.0mph /  3.2km/h 35% 0.00in /  0mm 248.0 W/m2
15:01 82.8 °F /  28.2 °C 50.7 °F /  10.4 °C 29.81in /  1009.4hPa NE 0.9mph /  1.4km/h 3.0mph /  4.8km/h 33% 0.00in /  0mm 886.0 W/m2
15:07 83.3 °F /  28.5 °C 52.0 °F /  11.1 °C 29.80in /  1009hPa NW 0.9mph /  1.4km/h 3.0mph /  4.8km/h 34% 0.00in /  0mm 874.0 W/m2
15:13 83.7 °F /  28.7 °C 50.7 °F /  10.4 °C 29.80in /  1009hPa SE 0.9mph /  1.4km/h 4.0mph /  6.4km/h 32% 0.00in /  0mm 900.0 W/m2
15:20 83.5 °F /  28.6 °C 51.4 °F /  10.8 °C 29.80in /  1009hPa SW 0.9mph /  1.4km/h 5.0mph /  8km/h 33% 0.00in /  0mm 253.0 W/m2
15:26 83.5 °F /  28.6 °C 52.9 °F /  11.6 °C 29.80in /  1009hPa NNW 2.0mph /  3.2km/h 6.0mph /  9.7km/h 35% 0.00in /  0mm 863.0 W/m2
15:32 83.7 °F /  28.7 °C 51.4 °F /  10.8 °C 29.79in /  1008.7hPa West 2.0mph /  3.2km/h 6.0mph /  9.7km/h 33% 0.00in /  0mm 817.0 W/m2
15:38 83.7 °F /  28.7 °C 51.4 °F /  10.8 °C 29.79in /  1008.7hPa West 0.9mph /  1.4km/h 6.0mph /  9.7km/h 33% 0.00in /  0mm 768.0 W/m2
15:44 83.7 °F /  28.7 °C 52.3 °F /  11.3 °C 29.78in /  1008.4hPa West 0.9mph /  1.4km/h 6.0mph /  9.7km/h 34% 0.00in /  0mm 740.0 W/m2
15:50 84.0 °F /  28.9 °C 51.8 °F /  11 °C 29.78in /  1008.4hPa WSW 4.9mph /  7.9km/h 8.0mph /  12.9km/h 33% 0.00in /  0mm 715.0 W/m2
15:56 84.0 °F /  28.9 °C 50.9 °F /  10.5 °C 29.78in /  1008.4hPa Calm   2.0mph /  3.2km/h 32% 0.00in /  0mm 700.0 W/m2
16:02 83.8 °F /  28.8 °C 50.9 °F /  10.5 °C 29.78in /  1008.4hPa WNW 2.9mph /  4.7km/h 7.0mph /  11.3km/h 32% 0.00in /  0mm 677.0 W/m2
16:08 83.3 °F /  28.5 °C 51.3 °F /  10.7 °C 29.78in /  1008.4hPa WSW 4.9mph /  7.9km/h 6.0mph /  9.7km/h 33% 0.00in /  0mm 656.0 W/m2
16:16 83.1 °F /  28.4 °C 51.8 °F /  11 °C 29.78in /  1008.4hPa Calm   3.0mph /  4.8km/h 34% 0.00in /  0mm 638.0 W/m2
16:21 83.3 °F /  28.5 °C 52.0 °F /  11.1 °C 29.77in /  1008hPa West 0.9mph /  1.4km/h 5.0mph /  8km/h 34% 0.00in /  0mm 615.0 W/m2
16:27 83.7 °F /  28.7 °C 52.3 °F /  11.3 °C 29.77in /  1008hPa WSW 2.0mph /  3.2km/h 3.0mph /  4.8km/h 34% 0.00in /  0mm 596.0 W/m2
16:33 83.8 °F /  28.8 °C 51.6 °F /  10.9 °C 29.77in /  1008hPa Calm   2.0mph /  3.2km/h 33% 0.00in /  0mm 580.0 W/m2
16:41 84.0 °F /  28.9 °C 52.7 °F /  11.5 °C 29.77in /  1008hPa WNW 0.9mph /  1.4km/h 4.0mph /  6.4km/h 34% 0.00in /  0mm 543.0 W/m2
16:47 84.4 °F /  29.1 °C 52.9 °F /  11.6 °C 29.76in /  1007.7hPa Calm   3.0mph /  4.8km/h 34% 0.00in /  0mm 527.0 W/m2
16:55 84.0 °F /  28.9 °C 52.7 °F /  11.5 °C 29.76in /  1007.7hPa Calm   5.0mph /  8km/h 34% 0.00in /  0mm 512.0 W/m2
17:02 83.7 °F /  28.7 °C 52.3 °F /  11.3 °C 29.76in /  1007.7hPa Calm   2.0mph /  3.2km/h 34% 0.00in /  0mm 494.0 W/m2
17:08 83.8 °F /  28.8 °C 52.5 °F /  11.4 °C 29.76in /  1007.7hPa SSW 0.9mph /  1.4km/h 7.0mph /  11.3km/h 34% 0.00in /  0mm 471.0 W/m2
17:14 83.5 °F /  28.6 °C 52.2 °F /  11.2 °C 29.75in /  1007.3hPa NW 2.0mph /  3.2km/h 5.0mph /  8km/h 34% 0.00in /  0mm 454.0 W/m2
17:20 83.5 °F /  28.6 °C 52.9 °F /  11.6 °C 29.75in /  1007.3hPa NNW 2.0mph /  3.2km/h 4.0mph /  6.4km/h 35% 0.00in /  0mm 415.0 W/m2
17:26 83.8 °F /  28.8 °C 53.2 °F /  11.8 °C 29.75in /  1007.3hPa Calm   5.0mph /  8km/h 35% 0.00in /  0mm 364.0 W/m2
17:32 83.8 °F /  28.8 °C 53.2 °F /  11.8 °C 29.75in /  1007.3hPa WSW 0.9mph /  1.4km/h 2.0mph /  3.2km/h 35% 0.00in /  0mm 336.0 W/m2
17:38 83.5 °F /  28.6 °C 53.8 °F /  12.1 °C 29.75in /  1007.3hPa WNW 2.0mph /  3.2km/h 6.0mph /  9.7km/h 36% 0.00in /  0mm 318.0 W/m2
17:45 82.9 °F /  28.3 °C 54.0 °F /  12.2 °C 29.75in /  1007.3hPa WSW 0.9mph /  1.4km/h 3.0mph /  4.8km/h 37% 0.00in /  0mm 253.0 W/m2
17:51 82.2 °F /  27.9 °C 53.4 °F /  11.9 °C 29.75in /  1007.3hPa Calm   8.0mph /  12.9km/h 37% 0.00in /  0mm 162.0 W/m2
17:57 81.3 °F /  27.4 °C 54.0 °F /  12.2 °C 29.75in /  1007.3hPa Calm   2.0mph /  3.2km/h 39% 0.00in /  0mm 44.0 W/m2
18:03 80.4 °F /  26.9 °C 54.0 °F /  12.2 °C 29.75in /  1007.3hPa Calm   2.0mph /  3.2km/h 40% 0.00in /  0mm 42.0 W/m2
18:09 79.7 °F /  26.5 °C 54.0 °F /  12.2 °C 29.75in /  1007.3hPa Calm   2.0mph /  3.2km/h 41% 0.00in /  0mm 40.0 W/m2
18:15 79.2 °F /  26.2 °C 54.1 °F /  12.3 °C 29.75in /  1007.3hPa Calm   1.0mph /  1.6km/h 42% 0.00in /  0mm 33.0 W/m2
18:21 78.6 °F /  25.9 °C 53.6 °F /  12 °C 29.75in /  1007.3hPa Calm     42% 0.00in /  0mm 32.0 W/m2
18:28 78.3 °F /  25.7 °C 54.0 °F /  12.2 °C 29.75in /  1007.3hPa WNW 0.9mph /  1.4km/h 1.0mph /  1.6km/h 43% 0.00in /  0mm 28.0 W/m2
18:34 77.9 °F /  25.5 °C 54.3 °F /  12.4 °C 29.75in /  1007.3hPa Calm     44% 0.00in /  0mm 25.0 W/m2
18:40 77.5 °F /  25.3 °C 54.0 °F /  12.2 °C 29.75in /  1007.3hPa WSW 0.9mph /  1.4km/h 1.0mph /  1.6km/h 44% 0.00in /  0mm 23.0 W/m2
18:46 77.4 °F /  25.2 °C 54.3 °F /  12.4 °C 29.75in /  1007.3hPa Calm     45% 0.00in /  0mm 14.0 W/m2
18:52 77.2 °F /  25.1 °C 54.9 °F /  12.7 °C 29.75in /  1007.3hPa Calm     46% 0.00in /  0mm 11.0 W/m2
18:59 76.8 °F /  24.9 °C 54.5 °F /  12.5 °C 29.76in /  1007.7hPa Calm     46% 0.00in /  0mm 7.0 W/m2
19:04 76.6 °F /  24.8 °C 54.9 °F /  12.7 °C 29.76in /  1007.7hPa WSW 2.0mph /  3.2km/h 3.0mph /  4.8km/h 47% 0.00in /  0mm 0.0 W/m2
19:11 76.3 °F /  24.6 °C 55.2 °F /  12.9 °C 29.76in /  1007.7hPa Calm   1.0mph /  1.6km/h 48% 0.00in /  0mm 0.0 W/m2
19:17 75.9 °F /  24.4 °C 54.9 °F /  12.7 °C 29.76in /  1007.7hPa Calm     48% 0.00in /  0mm 0.0 W/m2
19:23 75.7 °F /  24.3 °C 54.1 °F /  12.3 °C 29.76in /  1007.7hPa Calm     47% 0.00in /  0mm 0.0 W/m2
19:29 75.7 °F /  24.3 °C 54.7 °F /  12.6 °C 29.76in /  1007.7hPa Calm     48% 0.00in /  0mm 0.0 W/m2
19:35 75.6 °F /  24.2 °C 54.5 °F /  12.5 °C 29.76in /  1007.7hPa Calm     48% 0.00in /  0mm 0.0 W/m2
19:41 75.4 °F /  24.1 °C 54.9 °F /  12.7 °C 29.76in /  1007.7hPa Calm     49% 0.00in /  0mm 0.0 W/m2
19:47 75.4 °F /  24.1 °C 54.9 °F /  12.7 °C 29.76in /  1007.7hPa Calm   2.0mph /  3.2km/h 49% 0.00in /  0mm 0.0 W/m2
19:54 75.0 °F /  23.9 °C 57.7 °F /  14.3 °C 29.76in /  1007.7hPa Calm   1.0mph /  1.6km/h 55% 0.00in /  0mm 0.0 W/m2
20:00 74.7 °F /  23.7 °C 56.8 °F /  13.8 °C 29.77in /  1008hPa Calm   1.0mph /  1.6km/h 54% 0.00in /  0mm 0.0 W/m2
20:06 74.3 °F /  23.5 °C 55.6 °F /  13.1 °C 29.76in /  1007.7hPa Calm   1.0mph /  1.6km/h 52% 0.00in /  0mm 0.0 W/m2
20:12 74.1 °F /  23.4 °C 54.9 °F /  12.7 °C 29.76in /  1007.7hPa Calm   1.0mph /  1.6km/h 51% 0.00in /  0mm 0.0 W/m2
20:18 73.9 °F /  23.3 °C 54.1 °F /  12.3 °C 29.76in /  1007.7hPa West 2.0mph /  3.2km/h 3.0mph /  4.8km/h 50% 0.00in /  0mm 0.0 W/m2
20:24 73.9 °F /  23.3 °C 55.2 °F /  12.9 °C 29.77in /  1008hPa Calm   2.0mph /  3.2km/h 52% 0.00in /  0mm 0.0 W/m2
20:30 73.8 °F /  23.2 °C 56.1 °F /  13.4 °C 29.76in /  1007.7hPa Calm   1.0mph /  1.6km/h 54% 0.00in /  0mm 0.0 W/m2
20:37 73.8 °F /  23.2 °C 56.1 °F /  13.4 °C 29.77in /  1008hPa Calm     54% 0.00in /  0mm 0.0 W/m2
20:47 73.6 °F /  23.1 °C 55.9 °F /  13.3 °C 29.77in /  1008hPa Calm     54% 0.00in /  0mm 0.0 W/m2
20:53 73.2 °F /  22.9 °C 54.5 °F /  12.5 °C 29.77in /  1008hPa SE 2.0mph /  3.2km/h 2.0mph /  3.2km/h 52% 0.00in /  0mm 0.0 W/m2
21:00 73.2 °F /  22.9 °C 57.0 °F /  13.9 °C 29.77in /  1008hPa Calm   2.0mph /  3.2km/h 57% 0.00in /  0mm 0.0 W/m2
21:07 72.9 °F /  22.7 °C 56.3 °F /  13.5 °C 29.78in /  1008.4hPa South 0.9mph /  1.4km/h 3.0mph /  4.8km/h 56% 0.00in /  0mm 0.0 W/m2
21:13 72.7 °F /  22.6 °C 55.6 °F /  13.1 °C 29.78in /  1008.4hPa Calm   1.0mph /  1.6km/h 55% 0.00in /  0mm 0.0 W/m2
21:21 72.3 °F /  22.4 °C 55.8 °F /  13.2 °C 29.78in /  1008.4hPa Calm   1.0mph /  1.6km/h 56% 0.00in /  0mm 0.0 W/m2
21:27 72.1 °F /  22.3 °C 55.0 °F /  12.8 °C 29.78in /  1008.4hPa Calm   1.0mph /  1.6km/h 55% 0.00in /  0mm 0.0 W/m2
21:32 72.0 °F /  22.2 °C 55.4 °F /  13 °C 29.78in /  1008.4hPa Calm     56% 0.00in /  0mm 0.0 W/m2
21:38 71.6 °F /  22 °C 54.5 °F /  12.5 °C 29.78in /  1008.4hPa SSE 0.9mph /  1.4km/h 3.0mph /  4.8km/h 55% 0.00in /  0mm 0.0 W/m2
21:45 71.2 °F /  21.8 °C 54.7 °F /  12.6 °C 29.78in /  1008.4hPa SSE 0.9mph /  1.4km/h 2.0mph /  3.2km/h 56% 0.00in /  0mm 0.0 W/m2
21:50 71.1 °F /  21.7 °C 54.5 °F /  12.5 °C 29.78in /  1008.4hPa ESE 2.0mph /  3.2km/h 3.0mph /  4.8km/h 56% 0.00in /  0mm 0.0 W/m2
21:56 70.9 °F /  21.6 °C 54.3 °F /  12.4 °C 29.78in /  1008.4hPa SSE 0.9mph /  1.4km/h 3.0mph /  4.8km/h 56% 0.00in /  0mm 0.0 W/m2
22:05 70.7 °F /  21.5 °C 53.2 °F /  11.8 °C 29.78in /  1008.4hPa SE 0.9mph /  1.4km/h 5.0mph /  8km/h 54% 0.00in /  0mm 0.0 W/m2
22:11 70.5 °F /  21.4 °C 53.6 °F /  12 °C 29.78in /  1008.4hPa SSE 2.0mph /  3.2km/h 5.0mph /  8km/h 55% 0.00in /  0mm 0.0 W/m2
22:17 70.5 °F /  21.4 °C 54.5 °F /  12.5 °C 29.79in /  1008.7hPa SE 2.0mph /  3.2km/h 3.0mph /  4.8km/h 57% 0.00in /  0mm 0.0 W/m2
22:23 70.3 °F /  21.3 °C 54.3 °F /  12.4 °C 29.78in /  1008.4hPa Calm   1.0mph /  1.6km/h 57% 0.00in /  0mm 0.0 W/m2
22:29 70.3 °F /  21.3 °C 54.3 °F /  12.4 °C 29.78in /  1008.4hPa ESE 0.9mph /  1.4km/h 1.0mph /  1.6km/h 57% 0.00in /  0mm 0.0 W/m2
22:35 70.2 °F /  21.2 °C 54.7 °F /  12.6 °C 29.78in /  1008.4hPa West 0.9mph /  1.4km/h 3.0mph /  4.8km/h 58% 0.00in /  0mm 0.0 W/m2
22:41 70.0 °F /  21.1 °C 52.5 °F /  11.4 °C 29.78in /  1008.4hPa Calm     54% 0.00in /  0mm 0.0 W/m2
22:47 70.0 °F /  21.1 °C 53.1 °F /  11.7 °C 29.78in /  1008.4hPa Calm     55% 0.00in /  0mm 0.0 W/m2
22:53 69.8 °F /  21 °C 51.4 °F /  10.8 °C 29.78in /  1008.4hPa Calm     52% 0.00in /  0mm 0.0 W/m2
22:59 69.6 °F /  20.9 °C 51.3 °F /  10.7 °C 29.78in /  1008.4hPa Calm     52% 0.00in /  0mm 0.0 W/m2
23:05 69.6 °F /  20.9 °C 51.3 °F /  10.7 °C 29.78in /  1008.4hPa Calm   1.0mph /  1.6km/h 52% 0.00in /  0mm 0.0 W/m2
23:11 69.6 °F /  20.9 °C 51.3 °F /  10.7 °C 29.78in /  1008.4hPa Calm   1.0mph /  1.6km/h 52% 0.00in /  0mm 0.0 W/m2
23:17 69.4 °F /  20.8 °C 51.6 °F /  10.9 °C 29.78in /  1008.4hPa Calm   1.0mph /  1.6km/h 53% 0.00in /  0mm 0.0 W/m2
23:23 69.3 °F /  20.7 °C 52.0 °F /  11.1 °C 29.78in /  1008.4hPa Calm     54% 0.00in /  0mm 0.0 W/m2
23:30 68.9 °F /  20.5 °C 52.0 °F /  11.1 °C 29.78in /  1008.4hPa Calm     55% 0.00in /  0mm 0.0 W/m2
23:36 68.7 °F /  20.4 °C 52.0 °F /  11.1 °C 29.78in /  1008.4hPa WSW 2.9mph /  4.7km/h 3.0mph /  4.8km/h 55% 0.00in /  0mm 0.0 W/m2
23:42 68.4 °F /  20.2 °C 52.5 °F /  11.4 °C 29.78in /  1008.4hPa Calm   1.0mph /  1.6km/h 57% 0.00in /  0mm 0.0 W/m2
23:48 68.4 °F /  20.2 °C 51.6 °F /  10.9 °C 29.78in /  1008.4hPa SW 0.9mph /  1.4km/h 2.0mph /  3.2km/h 55% 0.00in /  0mm 0.0 W/m2
23:54 68.4 °F /  20.2 °C 51.1 °F /  10.6 °C 29.78in /  1008.4hPa Calm   3.0mph /  4.8km/h 54% 0.00in /  0mm 0.0 W/m2
Olympia, Windhoek, Namibia
Compliments of Weather Underground - 3 mb